sensor_id;sensor_type;location;lat;lon;timestamp;P1;durP1;ratioP1;P2;durP2;ratioP2
62457;SDS011;48509;52.122;5.250;2023-03-14T00:01:27;41.4;;;9.4;;
62457;SDS011;48509;52.122;5.250;2023-03-14T00:04:39;35.6;;;8.5;;
62457;SDS011;48509;52.122;5.250;2023-03-14T00:06:16;32.9;;;8.31;;
62457;SDS011;48509;52.122;5.250;2023-03-14T00:07:52;32.3;;;8.71;;
62457;SDS011;48509;52.122;5.250;2023-03-14T00:11:05;40.31;;;9.21;;
62457;SDS011;48509;52.122;5.250;2023-03-14T00:12:43;41.5;;;8.5;;
62457;SDS011;48509;52.122;5.250;2023-03-14T00:14:20;39.0;;;8.4;;
62457;SDS011;48509;52.122;5.250;2023-03-14T00:17:38;34.5;;;8.0;;
62457;SDS011;48509;52.122;5.250;2023-03-14T00:19:14;37.71;;;7.8;;
62457;SDS011;48509;52.122;5.250;2023-03-14T00:20:51;35.4;;;7.9;;
62457;SDS011;48509;52.122;5.250;2023-03-14T00:22:28;33.5;;;7.6;;
62457;SDS011;48509;52.122;5.250;2023-03-14T00:25:43;33.9;;;7.3;;
62457;SDS011;48509;52.122;5.250;2023-03-14T00:27:19;36.21;;;8.1;;
62457;SDS011;48509;52.122;5.250;2023-03-14T00:28:55;43.3;;;8.2;;
62457;SDS011;48509;52.122;5.250;2023-03-14T00:32:07;33.0;;;7.7;;
62457;SDS011;48509;52.122;5.250;2023-03-14T00:33:44;39.21;;;7.7;;
62457;SDS011;48509;52.122;5.250;2023-03-14T00:35:20;39.0;;;7.6;;
62457;SDS011;48509;52.122;5.250;2023-03-14T00:36:56;32.5;;;7.5;;
62457;SDS011;48509;52.122;5.250;2023-03-14T00:40:09;27.5;;;6.4;;
62457;SDS011;48509;52.122;5.250;2023-03-14T00:41:46;27.7;;;6.6;;
62457;SDS011;48509;52.122;5.250;2023-03-14T00:43:22;24.0;;;5.9;;
62457;SDS011;48509;52.122;5.250;2023-03-14T00:46:35;27.8;;;5.7;;
62457;SDS011;48509;52.122;5.250;2023-03-14T00:48:11;21.8;;;5.2;;
62457;SDS011;48509;52.122;5.250;2023-03-14T00:49:47;19.5;;;4.91;;
62457;SDS011;48509;52.122;5.250;2023-03-14T00:53:00;17.5;;;4.1;;
62457;SDS011;48509;52.122;5.250;2023-03-14T00:54:36;17.7;;;4.2;;
62457;SDS011;48509;52.122;5.250;2023-03-14T00:56:12;18.7;;;4.7;;
62457;SDS011;48509;52.122;5.250;2023-03-14T00:57:49;16.8;;;4.2;;
62457;SDS011;48509;52.122;5.250;2023-03-14T01:01:04;19.61;;;4.41;;
62457;SDS011;48509;52.122;5.250;2023-03-14T01:02:41;22.0;;;4.1;;
62457;SDS011;48509;52.122;5.250;2023-03-14T01:04:19;20.5;;;4.3;;
62457;SDS011;48509;52.122;5.250;2023-03-14T01:07:42;13.9;;;3.9;;
62457;SDS011;48509;52.122;5.250;2023-03-14T01:09:18;22.9;;;4.41;;
62457;SDS011;48509;52.122;5.250;2023-03-14T01:10:54;19.0;;;4.0;;
62457;SDS011;48509;52.122;5.250;2023-03-14T01:12:30;19.7;;;4.0;;
62457;SDS011;48509;52.122;5.250;2023-03-14T01:15:42;19.91;;;4.7;;
62457;SDS011;48509;52.122;5.250;2023-03-14T01:17:19;19.41;;;4.61;;
62457;SDS011;48509;52.122;5.250;2023-03-14T01:18:55;17.7;;;4.2;;
62457;SDS011;48509;52.122;5.250;2023-03-14T01:22:08;20.2;;;4.7;;
62457;SDS011;48509;52.122;5.250;2023-03-14T01:23:44;18.41;;;4.1;;
62457;SDS011;48509;52.122;5.250;2023-03-14T01:25:21;16.11;;;4.1;;
62457;SDS011;48509;52.122;5.250;2023-03-14T01:28:34;17.0;;;4.0;;
62457;SDS011;48509;52.122;5.250;2023-03-14T01:30:10;17.2;;;4.2;;
62457;SDS011;48509;52.122;5.250;2023-03-14T01:31:49;16.3;;;4.1;;
62457;SDS011;48509;52.122;5.250;2023-03-14T01:33:25;22.2;;;5.0;;
62457;SDS011;48509;52.122;5.250;2023-03-14T01:36:38;15.1;;;4.0;;
62457;SDS011;48509;52.122;5.250;2023-03-14T01:38:14;16.11;;;4.3;;
62457;SDS011;48509;52.122;5.250;2023-03-14T01:39:50;17.11;;;4.5;;
62457;SDS011;48509;52.122;5.250;2023-03-14T01:43:06;14.8;;;4.2;;
62457;SDS011;48509;52.122;5.250;2023-03-14T01:44:51;17.7;;;4.7;;
62457;SDS011;48509;52.122;5.250;2023-03-14T01:46:32;21.5;;;4.61;;
62457;SDS011;48509;52.122;5.250;2023-03-14T01:48:13;20.9;;;4.2;;
62457;SDS011;48509;52.122;5.250;2023-03-14T01:51:30;20.2;;;4.41;;
62457;SDS011;48509;52.122;5.250;2023-03-14T01:53:11;21.8;;;3.8;;
62457;SDS011;48509;52.122;5.250;2023-03-14T01:54:49;17.41;;;3.9;;
62457;SDS011;48509;52.122;5.250;2023-03-14T01:56:29;17.91;;;4.41;;
62457;SDS011;48509;52.122;5.250;2023-03-14T01:59:46;24.7;;;4.7;;
62457;SDS011;48509;52.122;5.250;2023-03-14T02:01:26;16.61;;;3.7;;
62457;SDS011;48509;52.122;5.250;2023-03-14T02:03:05;18.11;;;3.8;;
62457;SDS011;48509;52.122;5.250;2023-03-14T02:04:49;15.3;;;3.7;;
62457;SDS011;48509;52.122;5.250;2023-03-14T02:08:13;16.8;;;3.4;;
62457;SDS011;48509;52.122;5.250;2023-03-14T02:09:53;20.41;;;3.9;;
62457;SDS011;48509;52.122;5.250;2023-03-14T02:11:32;17.91;;;3.7;;
62457;SDS011;48509;52.122;5.250;2023-03-14T02:13:09;14.3;;;3.2;;
62457;SDS011;48509;52.122;5.250;2023-03-14T02:16:23;19.61;;;4.0;;
62457;SDS011;48509;52.122;5.250;2023-03-14T02:18:01;16.7;;;3.5;;
62457;SDS011;48509;52.122;5.250;2023-03-14T02:19:46;16.4;;;3.2;;
62457;SDS011;48509;52.122;5.250;2023-03-14T02:21:36;14.8;;;3.3;;
62457;SDS011;48509;52.122;5.250;2023-03-14T02:25:11;16.11;;;3.3;;
62457;SDS011;48509;52.122;5.250;2023-03-14T02:27:24;16.9;;;3.3;;
62457;SDS011;48509;52.122;5.250;2023-03-14T02:29:01;19.0;;;3.3;;
62457;SDS011;48509;52.122;5.250;2023-03-14T02:30:37;15.9;;;3.5;;
62457;SDS011;48509;52.122;5.250;2023-03-14T02:32:14;14.5;;;3.3;;
62457;SDS011;48509;52.122;5.250;2023-03-14T02:35:32;17.2;;;3.3;;
62457;SDS011;48509;52.122;5.250;2023-03-14T02:37:16;15.4;;;3.8;;
62457;SDS011;48509;52.122;5.250;2023-03-14T02:38:58;14.0;;;2.8;;
62457;SDS011;48509;52.122;5.250;2023-03-14T02:40:42;13.1;;;3.0;;
62457;SDS011;48509;52.122;5.250;2023-03-14T02:43:57;13.5;;;3.0;;
62457;SDS011;48509;52.122;5.250;2023-03-14T02:45:35;15.4;;;3.3;;
62457;SDS011;48509;52.122;5.250;2023-03-14T02:47:18;15.7;;;3.3;;
62457;SDS011;48509;52.122;5.250;2023-03-14T02:48:59;12.3;;;3.1;;
62457;SDS011;48509;52.122;5.250;2023-03-14T02:52:17;15.4;;;3.3;;
62457;SDS011;48509;52.122;5.250;2023-03-14T02:53:53;17.91;;;3.1;;
62457;SDS011;48509;52.122;5.250;2023-03-14T02:55:29;16.5;;;3.3;;
62457;SDS011;48509;52.122;5.250;2023-03-14T02:57:05;16.8;;;3.3;;
62457;SDS011;48509;52.122;5.250;2023-03-14T03:00:18;15.0;;;3.4;;
62457;SDS011;48509;52.122;5.250;2023-03-14T03:01:54;13.4;;;3.0;;
62457;SDS011;48509;52.122;5.250;2023-03-14T03:03:31;19.0;;;3.4;;
62457;SDS011;48509;52.122;5.250;2023-03-14T03:06:43;14.7;;;3.7;;
62457;SDS011;48509;52.122;5.250;2023-03-14T03:08:19;13.6;;;3.2;;
62457;SDS011;48509;52.122;5.250;2023-03-14T03:09:57;17.5;;;3.6;;
62457;SDS011;48509;52.122;5.250;2023-03-14T03:13:09;17.7;;;3.7;;
62457;SDS011;48509;52.122;5.250;2023-03-14T03:14:45;13.1;;;3.6;;
62457;SDS011;48509;52.122;5.250;2023-03-14T03:16:22;15.7;;;3.7;;
62457;SDS011;48509;52.122;5.250;2023-03-14T03:17:58;13.6;;;3.6;;
62457;SDS011;48509;52.122;5.250;2023-03-14T03:21:11;17.61;;;4.0;;
62457;SDS011;48509;52.122;5.250;2023-03-14T03:22:47;16.5;;;3.7;;
62457;SDS011;48509;52.122;5.250;2023-03-14T03:24:23;13.3;;;3.9;;
62457;SDS011;48509;52.122;5.250;2023-03-14T03:27:37;14.7;;;3.6;;
62457;SDS011;48509;52.122;5.250;2023-03-14T03:29:13;22.4;;;4.41;;
62457;SDS011;48509;52.122;5.250;2023-03-14T03:30:49;17.41;;;4.0;;
62457;SDS011;48509;52.122;5.250;2023-03-14T03:34:03;19.11;;;3.8;;
62457;SDS011;48509;52.122;5.250;2023-03-14T03:35:43;15.2;;;3.8;;
62457;SDS011;48509;52.122;5.250;2023-03-14T03:37:20;16.9;;;3.9;;
62457;SDS011;48509;52.122;5.250;2023-03-14T03:38:56;17.3;;;4.2;;
62457;SDS011;48509;52.122;5.250;2023-03-14T03:42:08;17.11;;;4.41;;
62457;SDS011;48509;52.122;5.250;2023-03-14T03:43:44;23.4;;;4.5;;
62457;SDS011;48509;52.122;5.250;2023-03-14T03:45:21;14.9;;;4.0;;
62457;SDS011;48509;52.122;5.250;2023-03-14T03:48:33;17.7;;;4.41;;
62457;SDS011;48509;52.122;5.250;2023-03-14T03:50:10;17.7;;;4.41;;
62457;SDS011;48509;52.122;5.250;2023-03-14T03:51:46;17.61;;;3.9;;
62457;SDS011;48509;52.122;5.250;2023-03-14T03:54:58;17.41;;;4.1;;
62457;SDS011;48509;52.122;5.250;2023-03-14T03:56:35;18.7;;;4.61;;
62457;SDS011;48509;52.122;5.250;2023-03-14T03:58:11;16.0;;;3.9;;
62457;SDS011;48509;52.122;5.250;2023-03-14T04:01:23;18.0;;;3.8;;
62457;SDS011;48509;52.122;5.250;2023-03-14T04:02:59;17.91;;;3.7;;
62457;SDS011;48509;52.122;5.250;2023-03-14T04:04:35;16.8;;;3.9;;
62457;SDS011;48509;52.122;5.250;2023-03-14T04:06:12;17.41;;;3.9;;
62457;SDS011;48509;52.122;5.250;2023-03-14T04:09:25;14.6;;;3.8;;
62457;SDS011;48509;52.122;5.250;2023-03-14T04:11:01;17.2;;;3.9;;
62457;SDS011;48509;52.122;5.250;2023-03-14T04:12:39;18.3;;;3.9;;
62457;SDS011;48509;52.122;5.250;2023-03-14T04:15:51;14.1;;;3.3;;
62457;SDS011;48509;52.122;5.250;2023-03-14T04:17:28;19.0;;;3.8;;
62457;SDS011;48509;52.122;5.250;2023-03-14T04:19:04;17.8;;;3.7;;
62457;SDS011;48509;52.122;5.250;2023-03-14T04:22:17;16.2;;;3.9;;
62457;SDS011;48509;52.122;5.250;2023-03-14T04:23:53;18.8;;;3.7;;
62457;SDS011;48509;52.122;5.250;2023-03-14T04:25:30;17.61;;;3.7;;
62457;SDS011;48509;52.122;5.250;2023-03-14T04:27:06;19.11;;;4.2;;
62457;SDS011;48509;52.122;5.250;2023-03-14T04:30:19;20.0;;;4.5;;
62457;SDS011;48509;52.122;5.250;2023-03-14T04:31:55;15.8;;;3.9;;
62457;SDS011;48509;52.122;5.250;2023-03-14T04:33:31;19.11;;;4.2;;
62457;SDS011;48509;52.122;5.250;2023-03-14T04:36:44;14.3;;;3.8;;
62457;SDS011;48509;52.122;5.250;2023-03-14T04:38:20;14.3;;;3.6;;
62457;SDS011;48509;52.122;5.250;2023-03-14T04:39:56;15.9;;;3.5;;
62457;SDS011;48509;52.122;5.250;2023-03-14T04:43:09;14.9;;;3.8;;
62457;SDS011;48509;52.122;5.250;2023-03-14T04:44:46;18.8;;;3.9;;
62457;SDS011;48509;52.122;5.250;2023-03-14T04:46:22;16.2;;;3.5;;
62457;SDS011;48509;52.122;5.250;2023-03-14T04:47:58;19.61;;;4.1;;
62457;SDS011;48509;52.122;5.250;2023-03-14T04:51:11;14.4;;;3.9;;
62457;SDS011;48509;52.122;5.250;2023-03-14T04:52:47;15.0;;;3.9;;
62457;SDS011;48509;52.122;5.250;2023-03-14T04:54:23;14.8;;;4.0;;
62457;SDS011;48509;52.122;5.250;2023-03-14T04:57:36;13.9;;;3.1;;
62457;SDS011;48509;52.122;5.250;2023-03-14T04:59:12;14.6;;;3.7;;
62457;SDS011;48509;52.122;5.250;2023-03-14T05:00:48;18.5;;;4.1;;
62457;SDS011;48509;52.122;5.250;2023-03-14T05:04:02;17.2;;;3.8;;
62457;SDS011;48509;52.122;5.250;2023-03-14T05:05:38;15.3;;;3.8;;
62457;SDS011;48509;52.122;5.250;2023-03-14T05:07:14;15.9;;;4.1;;
62457;SDS011;48509;52.122;5.250;2023-03-14T05:08:50;17.41;;;4.7;;
62457;SDS011;48509;52.122;5.250;2023-03-14T05:12:02;22.6;;;4.8;;
62457;SDS011;48509;52.122;5.250;2023-03-14T05:13:39;16.5;;;4.5;;
62457;SDS011;48509;52.122;5.250;2023-03-14T05:15:15;15.6;;;4.1;;
62457;SDS011;48509;52.122;5.250;2023-03-14T05:18:27;18.41;;;4.3;;
62457;SDS011;48509;52.122;5.250;2023-03-14T05:20:03;15.6;;;4.1;;
62457;SDS011;48509;52.122;5.250;2023-03-14T05:21:40;15.7;;;5.11;;
62457;SDS011;48509;52.122;5.250;2023-03-14T05:24:52;13.9;;;4.0;;
62457;SDS011;48509;52.122;5.250;2023-03-14T05:26:29;14.9;;;4.7;;
62457;SDS011;48509;52.122;5.250;2023-03-14T05:28:06;14.8;;;4.61;;
62457;SDS011;48509;52.122;5.250;2023-03-14T05:31:18;15.7;;;4.3;;
62457;SDS011;48509;52.122;5.250;2023-03-14T05:32:54;14.1;;;3.9;;
62457;SDS011;48509;52.122;5.250;2023-03-14T05:34:30;15.7;;;4.5;;
62457;SDS011;48509;52.122;5.250;2023-03-14T05:36:07;15.7;;;4.5;;
62457;SDS011;48509;52.122;5.250;2023-03-14T05:39:20;14.8;;;5.2;;
62457;SDS011;48509;52.122;5.250;2023-03-14T05:40:56;10.7;;;3.9;;
62457;SDS011;48509;52.122;5.250;2023-03-14T05:42:33;9.5;;;4.2;;
62457;SDS011;48509;52.122;5.250;2023-03-14T05:45:45;10.7;;;4.0;;
62457;SDS011;48509;52.122;5.250;2023-03-14T05:47:21;17.91;;;5.4;;
62457;SDS011;48509;52.122;5.250;2023-03-14T05:48:57;16.5;;;5.9;;
62457;SDS011;48509;52.122;5.250;2023-03-14T05:52:11;15.9;;;6.0;;
62457;SDS011;48509;52.122;5.250;2023-03-14T05:53:48;13.7;;;5.7;;
62457;SDS011;48509;52.122;5.250;2023-03-14T05:55:24;13.7;;;5.11;;
62457;SDS011;48509;52.122;5.250;2023-03-14T05:57:01;15.3;;;6.3;;
62457;SDS011;48509;52.122;5.250;2023-03-14T06:00:13;17.8;;;6.0;;
62457;SDS011;48509;52.122;5.250;2023-03-14T06:01:50;15.4;;;6.3;;
62457;SDS011;48509;52.122;5.250;2023-03-14T06:03:26;11.6;;;6.1;;
62457;SDS011;48509;52.122;5.250;2023-03-14T06:06:41;18.0;;;7.9;;
62457;SDS011;48509;52.122;5.250;2023-03-14T06:08:17;13.8;;;8.2;;
62457;SDS011;48509;52.122;5.250;2023-03-14T06:09:53;14.3;;;7.9;;
62457;SDS011;48509;52.122;5.250;2023-03-14T06:13:05;20.5;;;10.7;;
62457;SDS011;48509;52.122;5.250;2023-03-14T06:14:41;15.7;;;10.0;;
62457;SDS011;48509;52.122;5.250;2023-03-14T06:16:17;16.4;;;10.4;;
62457;SDS011;48509;52.122;5.250;2023-03-14T06:17:53;15.8;;;8.5;;
62457;SDS011;48509;52.122;5.250;2023-03-14T06:21:07;21.2;;;10.4;;
62457;SDS011;48509;52.122;5.250;2023-03-14T06:22:44;14.0;;;9.31;;
62457;SDS011;48509;52.122;5.250;2023-03-14T06:24:20;16.61;;;9.71;;
62457;SDS011;48509;52.122;5.250;2023-03-14T06:27:32;18.61;;;10.5;;
62457;SDS011;48509;52.122;5.250;2023-03-14T06:29:09;13.6;;;9.9;;
62457;SDS011;48509;52.122;5.250;2023-03-14T06:30:45;16.7;;;9.31;;
62457;SDS011;48509;52.122;5.250;2023-03-14T06:33:58;12.2;;;7.0;;
62457;SDS011;48509;52.122;5.250;2023-03-14T06:35:35;9.6;;;5.5;;
62457;SDS011;48509;52.122;5.250;2023-03-14T06:37:11;8.31;;;4.1;;
62457;SDS011;48509;52.122;5.250;2023-03-14T06:38:47;11.4;;;3.9;;
62457;SDS011;48509;52.122;5.250;2023-03-14T06:41:59;7.5;;;2.5;;
62457;SDS011;48509;52.122;5.250;2023-03-14T06:43:35;5.4;;;1.7;;
62457;SDS011;48509;52.122;5.250;2023-03-14T06:45:12;5.9;;;1.7;;
62457;SDS011;48509;52.122;5.250;2023-03-14T06:48:25;4.7;;;1.11;;
62457;SDS011;48509;52.122;5.250;2023-03-14T06:50:01;3.9;;;1.3;;
62457;SDS011;48509;52.122;5.250;2023-03-14T06:51:39;3.2;;;1.2;;
62457;SDS011;48509;52.122;5.250;2023-03-14T06:54:52;3.8;;;1.2;;
62457;SDS011;48509;52.122;5.250;2023-03-14T06:56:28;4.8;;;1.11;;
62457;SDS011;48509;52.122;5.250;2023-03-14T06:58:04;5.11;;;1.6;;
62457;SDS011;48509;52.122;5.250;2023-03-14T07:01:18;5.5;;;1.3;;
62457;SDS011;48509;52.122;5.250;2023-03-14T07:02:58;5.0;;;1.4;;
62457;SDS011;48509;52.122;5.250;2023-03-14T07:04:34;3.7;;;1.11;;
62457;SDS011;48509;52.122;5.250;2023-03-14T07:06:10;4.2;;;1.4;;
62457;SDS011;48509;52.122;5.250;2023-03-14T07:09:22;5.11;;;1.8;;
62457;SDS011;48509;52.122;5.250;2023-03-14T07:10:59;5.6;;;1.8;;
62457;SDS011;48509;52.122;5.250;2023-03-14T07:12:35;3.6;;;1.3;;
62457;SDS011;48509;52.122;5.250;2023-03-14T07:15:47;5.7;;;1.9;;
62457;SDS011;48509;52.122;5.250;2023-03-14T07:17:23;7.1;;;2.1;;
62457;SDS011;48509;52.122;5.250;2023-03-14T07:18:59;5.11;;;1.4;;
62457;SDS011;48509;52.122;5.250;2023-03-14T07:22:12;5.4;;;1.3;;
62457;SDS011;48509;52.122;5.250;2023-03-14T07:23:49;7.6;;;1.6;;
62457;SDS011;48509;52.122;5.250;2023-03-14T07:25:25;5.3;;;1.4;;
62457;SDS011;48509;52.122;5.250;2023-03-14T07:27:02;6.6;;;1.7;;
62457;SDS011;48509;52.122;5.250;2023-03-14T07:30:14;7.1;;;1.7;;
62457;SDS011;48509;52.122;5.250;2023-03-14T07:31:50;3.1;;;1.5;;
62457;SDS011;48509;52.122;5.250;2023-03-14T07:33:26;5.5;;;1.8;;
62457;SDS011;48509;52.122;5.250;2023-03-14T07:36:40;4.2;;;1.4;;
62457;SDS011;48509;52.122;5.250;2023-03-14T07:38:16;3.8;;;1.3;;
62457;SDS011;48509;52.122;5.250;2023-03-14T07:39:52;4.41;;;1.11;;
62457;SDS011;48509;52.122;5.250;2023-03-14T07:43:04;4.2;;;1.11;;
62457;SDS011;48509;52.122;5.250;2023-03-14T07:44:41;2.8;;;0.8;;
62457;SDS011;48509;52.122;5.250;2023-03-14T07:46:17;3.5;;;0.9;;
62457;SDS011;48509;52.122;5.250;2023-03-14T07:47:52;3.6;;;0.7;;
62457;SDS011;48509;52.122;5.250;2023-03-14T07:51:05;3.7;;;0.8;;
62457;SDS011;48509;52.122;5.250;2023-03-14T07:52:41;3.4;;;0.7;;
62457;SDS011;48509;52.122;5.250;2023-03-14T07:54:17;2.9;;;0.7;;
62457;SDS011;48509;52.122;5.250;2023-03-14T07:57:29;7.1;;;0.9;;
62457;SDS011;48509;52.122;5.250;2023-03-14T07:59:05;4.8;;;0.8;;
62457;SDS011;48509;52.122;5.250;2023-03-14T08:00:41;5.2;;;1.11;;
62457;SDS011;48509;52.122;5.250;2023-03-14T08:03:55;3.5;;;0.8;;
62457;SDS011;48509;52.122;5.250;2023-03-14T08:05:33;3.7;;;1.0;;
62457;SDS011;48509;52.122;5.250;2023-03-14T08:07:10;5.4;;;0.9;;
62457;SDS011;48509;52.122;5.250;2023-03-14T08:08:46;5.2;;;1.0;;
62457;SDS011;48509;52.122;5.250;2023-03-14T08:11:58;8.9;;;1.7;;
62457;SDS011;48509;52.122;5.250;2023-03-14T08:13:35;6.6;;;1.2;;
62457;SDS011;48509;52.122;5.250;2023-03-14T08:15:13;8.6;;;1.4;;
62457;SDS011;48509;52.122;5.250;2023-03-14T08:18:26;5.0;;;0.9;;
62457;SDS011;48509;52.122;5.250;2023-03-14T08:20:02;9.9;;;1.2;;
62457;SDS011;48509;52.122;5.250;2023-03-14T08:21:39;4.3;;;1.11;;
62457;SDS011;48509;52.122;5.250;2023-03-14T08:24:51;5.5;;;0.8;;
62457;SDS011;48509;52.122;5.250;2023-03-14T08:26:27;6.9;;;1.11;;
62457;SDS011;48509;52.122;5.250;2023-03-14T08:28:03;7.9;;;0.9;;
62457;SDS011;48509;52.122;5.250;2023-03-14T08:29:40;7.5;;;1.0;;
62457;SDS011;48509;52.122;5.250;2023-03-14T08:32:53;6.6;;;0.9;;
62457;SDS011;48509;52.122;5.250;2023-03-14T08:34:32;5.0;;;0.9;;
62457;SDS011;48509;52.122;5.250;2023-03-14T08:36:09;5.9;;;1.0;;
62457;SDS011;48509;52.122;5.250;2023-03-14T08:39:22;6.4;;;1.11;;
62457;SDS011;48509;52.122;5.250;2023-03-14T08:40:59;3.7;;;0.9;;
62457;SDS011;48509;52.122;5.250;2023-03-14T08:42:37;9.6;;;0.9;;
62457;SDS011;48509;52.122;5.250;2023-03-14T08:45:50;5.9;;;1.11;;
62457;SDS011;48509;52.122;5.250;2023-03-14T08:47:26;4.8;;;0.8;;
62457;SDS011;48509;52.122;5.250;2023-03-14T08:49:02;4.91;;;0.8;;
62457;SDS011;48509;52.122;5.250;2023-03-14T08:50:39;5.7;;;0.9;;
62457;SDS011;48509;52.122;5.250;2023-03-14T08:53:52;9.71;;;1.3;;
62457;SDS011;48509;52.122;5.250;2023-03-14T08:55:28;10.8;;;1.3;;
62457;SDS011;48509;52.122;5.250;2023-03-14T08:57:04;8.81;;;1.11;;
62457;SDS011;48509;52.122;5.250;2023-03-14T09:00:18;11.8;;;1.8;;
62457;SDS011;48509;52.122;5.250;2023-03-14T09:01:55;11.3;;;1.8;;
62457;SDS011;48509;52.122;5.250;2023-03-14T09:03:31;7.8;;;1.5;;
62457;SDS011;48509;52.122;5.250;2023-03-14T09:06:44;15.0;;;2.31;;
62457;SDS011;48509;52.122;5.250;2023-03-14T09:08:20;12.9;;;2.0;;
62457;SDS011;48509;52.122;5.250;2023-03-14T09:09:56;13.8;;;2.31;;
62457;SDS011;48509;52.122;5.250;2023-03-14T09:11:33;13.2;;;2.31;;
62457;SDS011;48509;52.122;5.250;2023-03-14T09:14:45;13.3;;;2.21;;
62457;SDS011;48509;52.122;5.250;2023-03-14T09:16:21;15.6;;;2.6;;
62457;SDS011;48509;52.122;5.250;2023-03-14T09:17:57;15.5;;;2.7;;
62457;SDS011;48509;52.122;5.250;2023-03-14T09:21:09;15.7;;;2.6;;
62457;SDS011;48509;52.122;5.250;2023-03-14T09:22:45;18.41;;;3.1;;
62457;SDS011;48509;52.122;5.250;2023-03-14T09:24:21;17.2;;;2.7;;
62457;SDS011;48509;52.122;5.250;2023-03-14T09:27:35;21.1;;;3.2;;
62457;SDS011;48509;52.122;5.250;2023-03-14T09:29:11;21.2;;;3.4;;
62457;SDS011;48509;52.122;5.250;2023-03-14T09:30:47;20.41;;;3.5;;
62457;SDS011;48509;52.122;5.250;2023-03-14T09:33:59;22.9;;;3.7;;
62457;SDS011;48509;52.122;5.250;2023-03-14T09:35:35;20.9;;;3.2;;
62457;SDS011;48509;52.122;5.250;2023-03-14T09:37:12;24.2;;;3.8;;
62457;SDS011;48509;52.122;5.250;2023-03-14T09:38:48;19.61;;;3.7;;
62457;SDS011;48509;52.122;5.250;2023-03-14T09:42:10;23.8;;;3.5;;
62457;SDS011;48509;52.122;5.250;2023-03-14T09:43:52;24.0;;;3.9;;
62457;SDS011;48509;52.122;5.250;2023-03-14T09:45:39;29.2;;;4.8;;
62457;SDS011;48509;52.122;5.250;2023-03-14T09:47:17;29.1;;;4.5;;
62457;SDS011;48509;52.122;5.250;2023-03-14T09:50:32;21.1;;;3.5;;
62457;SDS011;48509;52.122;5.250;2023-03-14T09:52:14;24.0;;;3.9;;
62457;SDS011;48509;52.122;5.250;2023-03-14T09:53:55;17.8;;;3.6;;
62457;SDS011;48509;52.122;5.250;2023-03-14T09:55:31;28.6;;;4.5;;
62457;SDS011;48509;52.122;5.250;2023-03-14T09:58:50;20.2;;;4.3;;
62457;SDS011;48509;52.122;5.250;2023-03-14T10:00:30;25.4;;;4.2;;
62457;SDS011;48509;52.122;5.250;2023-03-14T10:02:13;25.7;;;4.2;;
62457;SDS011;48509;52.122;5.250;2023-03-14T10:03:53;26.3;;;3.7;;
62457;SDS011;48509;52.122;5.250;2023-03-14T10:07:08;25.5;;;4.1;;
62457;SDS011;48509;52.122;5.250;2023-03-14T10:08:50;28.8;;;4.3;;
62457;SDS011;48509;52.122;5.250;2023-03-14T10:10:26;26.7;;;4.3;;
62457;SDS011;48509;52.122;5.250;2023-03-14T10:13:46;28.0;;;4.7;;
62457;SDS011;48509;52.122;5.250;2023-03-14T10:15:26;27.5;;;4.91;;
62457;SDS011;48509;52.122;5.250;2023-03-14T10:17:08;21.4;;;4.41;;
62457;SDS011;48509;52.122;5.250;2023-03-14T10:18:45;22.0;;;3.8;;
62457;SDS011;48509;52.122;5.250;2023-03-14T10:22:05;22.1;;;3.6;;
62457;SDS011;48509;52.122;5.250;2023-03-14T10:23:50;25.4;;;4.3;;
62457;SDS011;48509;52.122;5.250;2023-03-14T10:25:27;24.7;;;3.7;;
62457;SDS011;48509;52.122;5.250;2023-03-14T10:27:08;19.61;;;3.6;;
62457;SDS011;48509;52.122;5.250;2023-03-14T10:29:00;19.2;;;3.7;;
62457;SDS011;48509;52.122;5.250;2023-03-14T10:32:20;30.5;;;4.5;;
62457;SDS011;48509;52.122;5.250;2023-03-14T10:34:03;21.6;;;3.8;;
62457;SDS011;48509;52.122;5.250;2023-03-14T10:35:41;27.8;;;4.5;;
62457;SDS011;48509;52.122;5.250;2023-03-14T10:37:17;29.2;;;4.7;;
62457;SDS011;48509;52.122;5.250;2023-03-14T10:40:52;27.6;;;4.3;;
62457;SDS011;48509;52.122;5.250;2023-03-14T10:42:30;33.8;;;4.5;;
62457;SDS011;48509;52.122;5.250;2023-03-14T10:44:09;29.0;;;5.0;;
62457;SDS011;48509;52.122;5.250;2023-03-14T10:45:51;31.9;;;4.8;;
62457;SDS011;48509;52.122;5.250;2023-03-14T10:49:14;25.2;;;4.61;;
62457;SDS011;48509;52.122;5.250;2023-03-14T10:51:03;26.2;;;4.3;;
62457;SDS011;48509;52.122;5.250;2023-03-14T10:52:46;30.8;;;4.91;;
62457;SDS011;48509;52.122;5.250;2023-03-14T10:54:24;33.1;;;5.2;;
62457;SDS011;48509;52.122;5.250;2023-03-14T10:57:42;35.21;;;5.8;;
62457;SDS011;48509;52.122;5.250;2023-03-14T10:59:19;37.4;;;5.5;;
62457;SDS011;48509;52.122;5.250;2023-03-14T11:01:00;32.4;;;5.5;;
62457;SDS011;48509;52.122;5.250;2023-03-14T11:02:48;32.21;;;5.5;;
62457;SDS011;48509;52.122;5.250;2023-03-14T11:04:44;28.8;;;4.91;;
62457;SDS011;48509;52.122;5.250;2023-03-14T11:06:36;35.5;;;5.8;;
62457;SDS011;48509;52.122;5.250;2023-03-14T11:10:07;30.9;;;5.6;;
62457;SDS011;48509;52.122;5.250;2023-03-14T11:11:53;37.1;;;5.6;;
62457;SDS011;48509;52.122;5.250;2023-03-14T11:13:41;37.6;;;5.6;;
62457;SDS011;48509;52.122;5.250;2023-03-14T11:15:27;39.81;;;5.8;;
62457;SDS011;48509;52.122;5.250;2023-03-14T11:17:10;40.5;;;6.0;;
62457;SDS011;48509;52.122;5.250;2023-03-14T11:21:04;38.6;;;5.7;;
62457;SDS011;48509;52.122;5.250;2023-03-14T11:22:49;33.0;;;5.3;;
62457;SDS011;48509;52.122;5.250;2023-03-14T11:24:38;30.1;;;5.2;;
62457;SDS011;48509;52.122;5.250;2023-03-14T11:26:30;30.9;;;4.91;;
62457;SDS011;48509;52.122;5.250;2023-03-14T11:28:15;25.8;;;4.5;;
62457;SDS011;48509;52.122;5.250;2023-03-14T11:30:00;25.9;;;5.0;;
62457;SDS011;48509;52.122;5.250;2023-03-14T11:31:49;31.4;;;4.61;;
62457;SDS011;48509;52.122;5.250;2023-03-14T11:35:28;29.3;;;4.91;;
62457;SDS011;48509;52.122;5.250;2023-03-14T11:37:12;28.6;;;4.7;;
62457;SDS011;48509;52.122;5.250;2023-03-14T11:38:55;24.9;;;4.41;;
62457;SDS011;48509;52.122;5.250;2023-03-14T11:40:33;27.3;;;4.1;;
62457;SDS011;48509;52.122;5.250;2023-03-14T11:42:11;28.9;;;4.91;;
62457;SDS011;48509;52.122;5.250;2023-03-14T11:45:32;28.0;;;4.5;;
62457;SDS011;48509;52.122;5.250;2023-03-14T11:47:14;24.2;;;4.5;;
62457;SDS011;48509;52.122;5.250;2023-03-14T11:48:58;27.5;;;3.7;;
62457;SDS011;48509;52.122;5.250;2023-03-14T11:50:39;23.5;;;3.8;;
62457;SDS011;48509;52.122;5.250;2023-03-14T11:54:04;23.0;;;3.9;;
62457;SDS011;48509;52.122;5.250;2023-03-14T11:55:50;19.7;;;3.4;;
62457;SDS011;48509;52.122;5.250;2023-03-14T11:57:26;19.2;;;3.5;;
62457;SDS011;48509;52.122;5.250;2023-03-14T11:59:03;18.91;;;3.7;;
62457;SDS011;48509;52.122;5.250;2023-03-14T12:02:25;14.0;;;3.0;;
62457;SDS011;48509;52.122;5.250;2023-03-14T12:04:16;13.9;;;2.7;;
62457;SDS011;48509;52.122;5.250;2023-03-14T12:06:06;14.0;;;2.7;;
62457;SDS011;48509;52.122;5.250;2023-03-14T12:08:02;14.7;;;2.8;;
62457;SDS011;48509;52.122;5.250;2023-03-14T12:10:21;18.3;;;3.4;;
62457;SDS011;48509;52.122;5.250;2023-03-14T12:11:57;15.7;;;3.3;;
62457;SDS011;48509;52.122;5.250;2023-03-14T12:13:38;21.6;;;3.2;;
62457;SDS011;48509;52.122;5.250;2023-03-14T12:16:56;16.11;;;3.3;;
62457;SDS011;48509;52.122;5.250;2023-03-14T12:18:34;20.6;;;3.4;;
62457;SDS011;48509;52.122;5.250;2023-03-14T12:20:15;17.2;;;3.1;;
62457;SDS011;48509;52.122;5.250;2023-03-14T12:21:56;16.5;;;3.2;;
62457;SDS011;48509;52.122;5.250;2023-03-14T12:25:19;16.11;;;3.0;;
62457;SDS011;48509;52.122;5.250;2023-03-14T12:26:59;13.4;;;2.8;;
62457;SDS011;48509;52.122;5.250;2023-03-14T12:28:37;17.3;;;3.0;;
62457;SDS011;48509;52.122;5.250;2023-03-14T12:30:17;18.0;;;3.4;;
62457;SDS011;48509;52.122;5.250;2023-03-14T12:34:00;14.5;;;3.1;;
62457;SDS011;48509;52.122;5.250;2023-03-14T12:35:39;13.7;;;2.6;;
62457;SDS011;48509;52.122;5.250;2023-03-14T12:37:19;15.5;;;2.9;;
62457;SDS011;48509;52.122;5.250;2023-03-14T12:39:06;20.7;;;3.1;;
62457;SDS011;48509;52.122;5.250;2023-03-14T12:40:56;13.0;;;2.8;;
62457;SDS011;48509;52.122;5.250;2023-03-14T12:44:38;11.1;;;2.31;;
62457;SDS011;48509;52.122;5.250;2023-03-14T12:46:24;11.4;;;2.6;;
62457;SDS011;48509;52.122;5.250;2023-03-14T12:48:06;12.5;;;2.5;;